Terminal Aerodrome Forecast
Issued by NWS

Home | Current Version | Previous Version | Text Only | Print | Product List | Glossary On
Versions: 1 2 3 4 5 6 7 8 9 10 11 12 13 14 15 16 17 18 19 20 21
000
FTUS41 KBOX 222338
TAFBED
TAF
KBED 222338Z 2300/2324 03017G32KT 2SM RA BR OVC008 WS020/05045KT
     FM230200 02016G28KT 2SM +RA BR OVC008
     FM230800 02014G27KT 1SM +RA BR OVC008
     FM231100 02014G26KT 1SM SHRA BR OVC008
     FM231200 01013G27KT 2SM -SHRA BR OVC008
     FM231500 02012G23KT 3SM -SHRA BR OVC010=

USA.gov is the U.S. government's official web portal to all federal, state and local government web resources and services.